Latest Weather Observations for Maryborough

IDQ60801

Issued at 3:02 pm EST Saturday 30 July 2016 (issued every 30 minutes, with the page automatically refreshed every 10 minutes)

About weather observations | Map of weather stations | Latest weather observations for QLD | Other Formats
Station Details ID: 040126 Name: MARYBOROUGH Lat: -25.51 Lon: 152.72 Height: 8.98 m
Data from the previous 72 hours. | See also: Recent months at Maryborough
Date/Time
EST
Temp
°C
App
Temp
°C
Dew
Point
°C
Rel
Hum
%
Delta-T
°C
Wind Press
QNH
hPa
Press
MSL
hPa
Rain since
9am
mm
Dir  Spd
km/h
Gust
km/h
Spd
kts
Gust
kts
30/03:00pm 23.4 20.9 6.7 34 8.6 SE 9 15 5 8 1017.6 1017.6 0.0
30/02:30pm 23.1 21.2 7.6 37 8.1 SSE 7 13 4 7 1017.6 - 0.0
30/02:00pm 23.3 21.5 7.0 35 8.4 NE 6 9 3 5 1017.9 - 0.0
30/01:30pm 23.4 21.1 7.5 36 8.3 SW 9 19 5 10 1018.3 - 0.0
30/01:00pm 22.9 20.7 6.2 34 8.5 ESE 7 15 4 8 1018.6 - 0.0
30/12:30pm 22.4 19.6 7.0 37 7.9 S 11 17 6 9 1019.1 - 0.0
30/12:00pm 21.9 19.8 8.1 41 7.2 SE 9 11 5 6 1019.8 1019.8 0.0
30/11:30am 21.6 19.4 9.5 46 6.5 WSW 11 19 6 10 1020.4 - 0.0
30/11:00am 21.2 20.3 11.5 54 5.4 SSW 7 15 4 8 1020.9 - 0.0
30/10:30am 20.2 19.6 12.4 61 4.4 WSW 7 13 4 7 1021.3 - 0.0
30/10:00am 19.0 18.2 11.8 63 4.0 S 7 11 4 6 1021.6 - 0.0
30/09:30am 17.5 16.9 12.2 71 2.9 S 7 11 4 6 1021.8 - 0.0
30/09:00am 16.2 15.1 11.8 75 2.4 SSE 9 11 5 6 1021.6 1021.6 0.0
30/08:30am 13.6 12.9 11.3 86 1.2 SW 6 9 3 5 1021.4 - 0.0
30/08:00am 12.3 11.4 11.5 95 0.4 SW 7 9 4 5 1021.3 - 0.0
30/07:30am 10.7 9.7 10.4 98 0.2 ESE 6 7 3 4 1021.0 - 0.0
30/07:19am 9.2 7.8 8.7 97 0.2 ESE 6 7 3 4 1021.0 - 0.0
30/07:01am 7.6 6.9 7.0 96 0.3 CALM 0 0 0 0 1020.8 - 0.0
30/07:00am 7.7 7.0 7.1 96 0.3 CALM 0 0 0 0 1020.8 - 0.0
30/06:30am 7.4 6.7 6.8 96 0.3 CALM 0 0 0 0 1020.6 - 0.0
30/06:00am 7.3 6.5 6.7 96 0.3 CALM 0 0 0 0 1020.3 1020.3 0.0
30/05:30am 7.5 6.8 6.8 95 0.3 CALM 0 0 0 0 1020.0 - 0.0
30/05:00am 7.7 7.0 7.0 95 0.3 CALM 0 0 0 0 1020.0 - 0.0
30/04:30am 7.9 7.2 7.1 95 0.4 CALM 0 0 0 0 1019.7 - 0.0
30/04:00am 8.6 8.1 7.8 95 0.4 CALM 0 0 0 0 1019.6 - 0.0
30/03:30am 8.5 7.9 7.6 94 0.4 CALM 0 0 0 0 1019.7 - 0.0
30/03:00am 9.6 9.4 9.0 96 0.3 CALM 0 2 0 1 1019.9 1019.9 0.0
30/02:30am 10.6 9.3 10.1 97 0.3 ESE 7 7 4 4 1020.0 - 0.0
30/02:00am 10.0 8.8 9.4 96 0.3 ESE 6 7 3 4 1020.2 - 0.0
30/01:30am 10.6 9.5 10.0 96 0.3 ESE 6 7 3 4 1020.5 - 0.0
30/01:00am 10.0 9.8 9.2 95 0.4 CALM 0 0 0 0 1020.8 - 0.0
30/12:30am 10.4 10.3 9.6 95 0.4 CALM 0 0 0 0 1021.0 - 0.0
30/12:00am 10.5 10.5 9.7 95 0.4 CALM 0 0 0 0 1021.3 1021.3 0.0
 
Date/Time
EST
Temp
°C
App
Temp
°C
Dew
Point
°C
Rel
Hum
%
Delta-T
°C
Wind Press
QNH
hPa
Press
MSL
hPa
Rain since
9am
mm
Dir  Spd
km/h
Gust
km/h
Spd
kts
Gust
kts
29/11:30pm 11.2 11.4 10.4 95 0.4 CALM 0 0 0 0 1021.3 - 0.0
29/11:12pm 11.2 11.4 10.4 95 0.4 CALM 0 0 0 0 1021.3 - 0.0
29/11:10pm 11.3 11.5 10.5 95 0.4 CALM 0 0 0 0 1021.3 - 0.0
29/11:00pm 10.8 10.9 10.0 95 0.4 CALM 0 0 0 0 1021.3 - 0.0
29/10:51pm 10.6 10.6 9.7 94 0.5 CALM 0 0 0 0 1021.3 - 0.0
29/10:30pm 10.6 10.6 9.7 94 0.5 CALM 0 0 0 0 1021.3 - 0.0
29/10:23pm 10.7 10.7 9.8 94 0.5 CALM 0 0 0 0 1021.3 - 0.0
29/10:00pm 10.8 10.8 9.7 93 0.6 CALM 0 0 0 0 1021.2 - 0.0
29/09:32pm 11.0 11.0 9.8 92 0.6 CALM 0 0 0 0 1021.3 - 0.0
29/09:30pm 11.0 11.0 9.8 92 0.6 CALM 0 0 0 0 1021.3 - 0.0
29/09:00pm 11.6 11.7 10.3 92 0.7 CALM 0 0 0 0 1021.2 1021.2 0.0
29/08:30pm 11.7 11.8 10.3 91 0.7 CALM 0 0 0 0 1021.2 - 0.0
29/08:00pm 12.0 12.1 10.2 89 0.9 CALM 0 0 0 0 1021.0 - 0.0
29/07:30pm 12.8 13.1 10.9 88 1.0 CALM 0 0 0 0 1020.9 - 0.0
29/07:00pm 13.6 14.1 11.7 88 1.0 CALM 0 0 0 0 1020.6 - 0.0
29/06:30pm 14.0 13.4 10.4 79 1.9 ESE 4 6 2 3 1020.3 - 0.0
29/06:00pm 15.6 14.7 10.6 72 2.6 ESE 6 7 3 4 1020.0 1020.0 0.0
29/05:30pm 17.8 16.8 10.9 64 3.7 E 7 9 4 5 1019.7 - 0.0
29/05:00pm 19.7 18.3 10.9 57 4.8 ESE 9 15 5 8 1019.6 - 0.0
29/04:30pm 20.8 19.1 11.2 54 5.3 ESE 11 15 6 8 1019.5 - 0.0
29/04:00pm 21.8 19.8 10.3 48 6.3 ESE 11 17 6 9 1019.4 - 0.0
29/03:30pm 23.0 21.7 10.1 44 7.1 NE 7 15 4 8 1019.4 - 0.0
29/03:00pm 21.4 20.9 10.9 51 5.8 ESE 4 7 2 4 1019.4 1019.4 0.0
29/02:30pm 21.8 18.8 9.3 45 6.7 ESE 15 20 8 11 1019.5 - 0.0
29/02:00pm 23.1 20.9 9.5 42 7.4 SE 11 20 6 11 1019.7 - 0.0
29/01:30pm 21.7 19.2 9.6 46 6.5 SSE 13 19 7 10 1020.0 - 0.0
29/01:00pm 23.7 22.0 10.0 42 7.5 S 9 13 5 7 1020.6 - 0.0
29/12:30pm 22.7 21.3 8.8 41 7.4 S 6 15 3 8 1021.1 - 0.0
29/12:00pm 21.5 19.1 10.0 48 6.2 SSE 13 20 7 11 1021.5 1021.5 0.0
29/11:30am 21.2 20.1 10.7 51 5.7 SSW 7 15 4 8 1022.1 - 0.0
29/11:00am 21.6 20.1 11.9 54 5.4 S 11 17 6 9 1022.7 - 0.0
29/10:30am 20.6 18.1 11.0 54 5.3 S 15 20 8 11 1023.1 - 0.0
29/10:00am 18.4 16.3 9.7 57 4.6 SSW 11 17 6 9 1023.4 - 0.0
29/09:30am 16.9 14.8 9.6 62 3.8 SSW 11 17 6 9 1023.7 - 0.0
29/09:00am 15.5 13.3 9.2 66 3.2 SW 11 13 6 7 1023.7 1023.7 0.0
29/08:30am 14.5 12.6 9.1 70 2.8 SSW 9 13 5 7 1023.5 - 0.0
29/08:00am 13.6 11.7 9.1 74 2.3 SW 9 11 5 6 1023.3 - 0.0
29/07:30am 13.0 11.0 8.7 75 2.2 SW 9 13 5 7 1023.2 - 0.0
29/07:00am 12.8 11.1 8.5 75 2.1 SSW 7 9 4 5 1022.9 - 0.0
29/06:30am 12.7 11.1 8.8 77 2.0 SSW 7 11 4 6 1022.7 - 0.0
29/06:00am 12.2 10.2 8.5 78 1.8 SSW 9 13 5 7 1022.5 1022.5 0.0
29/05:30am 12.3 10.8 8.6 78 1.8 SSW 6 7 3 4 1022.1 - 0.0
29/05:00am 13.2 11.6 8.7 74 2.3 SSW 7 9 4 5 1021.9 - 0.0
29/04:30am 13.2 11.2 8.7 74 2.3 SW 9 13 5 7 1021.7 - 0.0
29/04:00am 13.3 11.4 9.0 75 2.2 SSW 9 15 5 8 1021.6 - 0.0
29/03:30am 13.1 10.8 9.0 76 2.1 SW 11 13 6 7 1021.6 - 0.0
29/03:00am 12.7 11.2 9.0 78 1.9 SSW 7 9 4 5 1021.5 1021.5 0.0
29/02:30am 12.6 10.7 8.9 78 1.9 SSW 9 11 5 6 1021.6 - 0.0
29/02:00am 12.3 10.4 9.0 80 1.7 SW 9 11 5 6 1021.8 - 0.0
29/01:30am 12.9 11.5 9.4 79 1.8 SW 7 11 4 6 1022.0 - 0.0
29/01:00am 12.9 11.5 9.7 81 1.6 SW 7 11 4 6 1022.2 - 0.0
29/12:30am 12.6 10.6 10.3 86 1.2 SW 11 15 6 8 1022.3 - 0.0
29/12:00am 10.7 10.6 9.6 93 0.5 CALM 0 0 0 0 1022.5 1022.5 0.0
 
Date/Time
EST
Temp
°C
App
Temp
°C
Dew
Point
°C
Rel
Hum
%
Delta-T
°C
Wind Press
QNH
hPa
Press
MSL
hPa
Rain since
9am
mm
Dir  Spd
km/h
Gust
km/h
Spd
kts
Gust
kts
28/11:30pm 10.5 10.4 9.6 94 0.5 CALM 0 0 0 0 1022.6 - 0.0
28/11:00pm 10.3 10.1 9.1 92 0.6 CALM 0 0 0 0 1022.8 - 0.0
28/10:30pm 10.8 10.0 9.6 92 0.6 S 4 6 2 3 1022.9 - 0.0
28/10:00pm 11.2 11.1 9.6 90 0.8 CALM 0 0 0 0 1023.1 - 0.0
28/09:30pm 11.7 10.6 10.1 90 0.8 S 6 7 3 4 1023.1 - 0.0
28/09:00pm 11.7 10.6 10.1 90 0.8 S 6 7 3 4 1023.3 1023.3 0.0
28/08:30pm 12.2 12.4 10.4 89 0.9 CALM 0 0 0 0 1023.4 - 0.0
28/08:00pm 12.8 11.8 10.3 85 1.3 S 6 7 3 4 1023.3 - 0.0
28/07:30pm 12.2 10.0 7.9 75 2.1 SE 9 11 5 6 1023.1 - 0.0
28/07:00pm 13.9 12.5 10.9 82 1.6 SE 9 11 5 6 1022.7 - 0.0
28/06:30pm 14.0 12.9 10.0 77 2.1 SE 6 9 3 5 1022.6 - 0.0
28/06:00pm 14.9 13.6 9.9 72 2.6 ESE 7 11 4 6 1022.2 1022.2 0.0
28/05:30pm 16.9 15.2 9.8 63 3.7 ESE 9 11 5 6 1021.9 - 0.0
28/05:00pm 18.9 17.4 9.1 53 5.1 ESE 7 11 4 6 1021.5 - 0.0
28/04:30pm 20.6 18.2 8.6 46 6.3 SE 11 15 6 8 1021.3 - 0.0
28/04:00pm 21.2 18.0 8.5 44 6.7 ESE 15 20 8 11 1021.2 - 0.0
28/03:30pm 21.5 18.2 6.2 37 7.7 ESE 13 20 7 11 1021.2 - 0.0
28/03:00pm 21.8 18.9 8.3 42 7.1 ESE 13 22 7 12 1021.1 1021.1 0.0
28/02:30pm 22.0 17.7 7.0 38 7.7 ESE 19 24 10 13 1021.0 - 0.0
28/02:00pm 21.9 18.5 7.7 40 7.4 SSE 15 22 8 12 1021.1 - 0.0
28/01:30pm 21.4 18.4 7.6 41 7.1 SE 13 22 7 12 1021.3 - 0.0
28/01:00pm 21.3 17.9 7.5 41 7.1 S 15 20 8 11 1021.8 - 0.0
28/12:30pm 20.8 17.6 6.7 40 7.1 SE 13 22 7 12 1022.3 - 0.0
28/12:00pm 20.4 16.3 6.0 39 7.1 S 17 26 9 14 1022.8 1022.8 0.0
28/11:30am 20.6 16.0 5.8 38 7.4 S 19 24 10 13 1023.2 - 0.0
28/11:00am 20.1 15.8 5.4 38 7.2 S 17 24 9 13 1023.6 - 0.0
28/10:30am 18.8 13.8 4.6 39 6.8 S 20 28 11 15 1023.9 - 0.0
28/10:00am 17.7 13.0 5.0 43 6.1 SSW 19 26 10 14 1024.2 - 0.0
28/09:30am 17.0 12.6 5.0 45 5.7 S 17 24 9 13 1024.2 - 0.0
28/09:00am 15.2 11.4 6.0 54 4.4 SW 15 19 8 10 1024.0 1024.0 0.0
28/08:30am 13.6 10.6 7.6 67 2.9 SW 13 19 7 10 1023.8 - 0.0
28/08:00am 9.2 8.0 6.5 83 1.3 WSW 2 11 1 6 1023.7 - 0.0
28/07:30am 6.8 5.9 6.2 96 0.3 CALM 0 0 0 0 1023.3 - 0.0
28/07:00am 4.5 3.1 3.8 95 0.3 CALM 0 0 0 0 1022.9 - 0.0
28/06:30am 4.4 3.0 3.5 94 0.4 CALM 0 0 0 0 1022.7 - 0.0
28/06:00am 4.9 2.4 4.0 94 0.4 WSW 6 7 3 4 1022.2 1022.2 0.0
28/05:30am 4.5 3.1 3.5 93 0.4 CALM 0 6 0 3 1021.9 - 0.0
28/05:00am 5.4 3.0 4.5 94 0.4 WSW 6 7 3 4 1021.7 - 0.0
28/04:30am 5.3 2.7 4.1 92 0.5 WSW 7 13 4 7 1021.6 - 0.0
28/04:00am 6.1 3.9 5.4 95 0.3 WSW 6 7 3 4 1021.8 - 0.0
28/03:30am 5.6 4.0 4.7 94 0.4 WSW 2 9 1 5 1021.9 - 0.0
28/03:00am 5.2 2.6 4.3 94 0.4 WSW 7 9 4 5 1022.0 1022.0 0.0
28/02:30am 5.0 3.7 4.1 94 0.4 CALM 0 0 0 0 1022.1 - 0.0
28/02:00am 5.2 2.8 4.2 93 0.4 WSW 6 7 3 4 1022.1 - 0.0
28/01:30am 5.6 4.4 4.6 93 0.4 CALM 0 0 0 0 1022.1 - 0.0
28/01:00am 6.1 5.0 5.1 93 0.4 CALM 0 0 0 0 1022.2 - 0.0
28/12:30am 6.2 5.1 5.0 92 0.5 CALM 0 0 0 0 1022.4 - 0.0
28/12:00am 6.9 5.2 5.7 92 0.5 WSW 4 6 2 3 1022.2 1022.2 0.0
 
Date/Time
EST
Temp
°C
App
Temp
°C
Dew
Point
°C
Rel
Hum
%
Delta-T
°C
Wind Press
QNH
hPa
Press
MSL
hPa
Rain since
9am
mm
Dir  Spd
km/h
Gust
km/h
Spd
kts
Gust
kts
27/11:30pm 7.4 6.5 6.2 92 0.5 CALM 0 0 0 0 1022.1 - 0.0
27/11:00pm 7.3 6.3 5.6 89 0.8 CALM 0 0 0 0 1021.9 - 0.0
27/10:30pm 8.3 6.4 6.6 89 0.8 WSW 6 7 3 4 1021.5 - 0.0
27/10:00pm 8.6 7.0 6.2 85 1.1 WSW 4 7 2 4 1021.5 - 0.0
27/09:30pm 9.6 8.8 6.5 81 1.4 CALM 0 0 0 0 1021.4 - 0.0
27/09:00pm 10.7 9.9 6.6 76 1.9 CALM 0 0 0 0 1020.9 1020.9 0.0
27/08:30pm 11.8 11.2 7.3 74 2.2 CALM 0 0 0 0 1020.7 - 0.0
27/08:00pm 11.6 11.1 7.7 77 1.9 CALM 0 0 0 0 1020.4 - 0.0
27/07:30pm 12.0 11.3 7.1 72 2.4 CALM 0 4 0 2 1019.9 - 0.0
27/07:00pm 12.2 10.1 6.0 66 2.9 WSW 6 7 3 4 1019.5 - 0.0
27/06:30pm 13.5 11.2 5.9 60 3.6 WSW 7 7 4 4 1019.1 - 0.0
27/06:00pm 17.1 14.6 4.8 44 5.8 WSW 7 11 4 6 1018.8 1018.8 0.0
27/05:30pm 18.1 15.7 5.3 43 6.2 WSW 7 11 4 6 1018.8 - 0.0
27/05:00pm 18.7 16.4 5.5 42 6.4 WSW 7 11 4 6 1018.3 - 0.0
27/04:30pm 19.5 16.7 5.2 39 7.0 WSW 9 13 5 7 1017.8 - 0.0
27/04:00pm 19.9 16.7 5.2 38 7.2 WSW 11 17 6 9 1017.6 - 0.0
27/03:30pm 20.4 16.4 4.8 36 7.6 WSW 15 22 8 12 1017.4 - 0.0

Other Formats:

Comma delimited format used in spreadsheet applications
http://www.bom.gov.au/fwo/IDQ60801/IDQ60801.94567.axf

JavaScript Object Notation format (JSON) in row-major order
http://www.bom.gov.au/fwo/IDQ60801/IDQ60801.94567.json